Dades meteomassalio
Diari Summary for Febrer 6, 2018 Units:  Metric    English   Both
« Previous Day
Next Day »
Diari Semanal Mensual Anual Personalitzat
  Maxima: Minima: Mijana:
Temperatura: -17.8 °C -17.2 °C -16.4 °C
Rosada: -17.8 °C -18.9 °C -17.3 °C
Humitat: Humidity % 76 % 90 %
Velocitat del vent: 0 km/h 0 km/h 25.9 km/h
Racha vent: 0 km/h - -
Vent:- - NW
Pressio: 0 hPa 34212.1 hPa -
Pluja: 289.56 mm    
Historical Graphs
 
 
Tabular Data for Febrer 6, 2018
Time Temperature Dew Point Pressure Wind Wind Speed Wind Gust Humidity Rainfall Rate (Hourly) solar Conditions
-17.8 °C -17.8 °C 0 hPa Calm     Humidity % 0 mm SolarRadiationWatts/m^2 W/m2 Conditions
00:01 -15.6 °C -16.2 °C 34256.2 hPa NW 26.9 km/h 26.9 km/h 93 % 12.7 mm 0.0 W/m2 RA
00:06 -15.6 °C -16.2 °C 34256.2 hPa WNW 20.9 km/h 20.9 km/h 93 % 12.7 mm 0.0 W/m2 CLR
00:11 -15.6 °C -16.2 °C 34256.2 hPa NW 15 km/h 15 km/h 93 % 12.7 mm 0.0 W/m2 RA
00:16 -15.6 °C -16.2 °C 34256.2 hPa WNW 23.8 km/h 23.8 km/h 93 % 12.7 mm 0.0 W/m2
00:21 -15.6 °C -16.2 °C 34256.2 hPa NW 15 km/h 15 km/h 93 % 12.7 mm 0.0 W/m2 CLR
00:26 -15.6 °C -16.2 °C 34256.2 hPa NW 20.9 km/h 20.9 km/h 93 % 12.7 mm 0.0 W/m2 CLR
00:31 -15.6 °C -16.2 °C 34256.2 hPa Calm     93 % 12.7 mm 0.0 W/m2 CLR
00:36 -15.6 °C -16.2 °C 34256.2 hPa NW 6 km/h 6 km/h 93 % 12.7 mm 0.0 W/m2 RA
00:41 -15.6 °C -16.2 °C 34256.2 hPa NNW 17.9 km/h 17.9 km/h 93 % 12.7 mm 0.0 W/m2 CLR
00:46 -15.6 °C -16.2 °C 34256.2 hPa NNW 20.9 km/h 20.9 km/h 93 % 12.7 mm 0.0 W/m2 CLR
00:51 -15.6 °C -16.2 °C 34256.2 hPa NNW 18.2 km/h 18.2 km/h 93 % 12.7 mm 0.0 W/m2 RA
00:56 -15.6 °C -16.2 °C 34256.2 hPa NNW 3.1 km/h   93 % 12.7 mm 0.0 W/m2 CLR
01:01 -15.6 °C -16.2 °C 34256.2 hPa NNW 9 km/h 9 km/h 93 % 20.32 mm 0.0 W/m2 RA
01:06 -15.6 °C -16.2 °C 34256.2 hPa NNW 17.9 km/h 17.9 km/h 93 % 20.32 mm 0.0 W/m2
01:11 -15.6 °C -16.2 °C 34256.2 hPa North 15 km/h 15 km/h 93 % 12.7 mm 0.0 W/m2 CLR
01:16 -15.6 °C -16.2 °C 34256.2 hPa Calm     93 % 20.32 mm 0.0 W/m2 RA
01:21 -15.6 °C -16.2 °C 34246 hPa Calm     93 % 20.32 mm 0.0 W/m2 CLR
01:26 -15.6 °C -16.2 °C 34246 hPa Calm     93 % 20.32 mm 0.0 W/m2 CLR
01:31 -15.6 °C -16.2 °C 34246 hPa Calm     93 % 25.4 mm 0.0 W/m2 RA
01:36 -15.6 °C -16.2 °C 34246 hPa Calm     93 % 20.32 mm 0.0 W/m2 CLR
01:41 -15.6 °C -16.2 °C 34246 hPa Calm     93 % 25.4 mm 0.0 W/m2 RA
01:46 -15.6 °C -16.2 °C 34246 hPa Calm     93 % 25.4 mm 0.0 W/m2
01:51 -15.6 °C -16.2 °C 34246 hPa Calm     93 % 25.4 mm 0.0 W/m2 RA
01:56 -15.6 °C -16.2 °C 34235.8 hPa Calm     93 % 33.02 mm 0.0 W/m2 RA
02:01 -15.6 °C -16.2 °C 34235.8 hPa NNW 23.8 km/h 23.8 km/h 93 % 25.4 mm 0.0 W/m2
02:06 -15.6 °C -16.2 °C 34235.8 hPa North 23.8 km/h 23.8 km/h 93 % 25.4 mm 0.0 W/m2 CLR
02:11 -15.6 °C -16.2 °C 34235.8 hPa NW 15 km/h 15 km/h 93 % 33.02 mm 0.0 W/m2 RA
02:16 -15.6 °C -16.2 °C 34235.8 hPa NNW 17.9 km/h 17.9 km/h 93 % 25.4 mm 0.0 W/m2 CLR
02:21 -15.6 °C -16.2 °C 34235.8 hPa Calm     93 % 25.4 mm 0.0 W/m2 CLR
02:26 -15.6 °C -16.2 °C 34235.8 hPa NW 23.8 km/h 23.8 km/h 93 % 25.4 mm 0.0 W/m2 CLR
02:31 -15.6 °C -16.2 °C 34235.8 hPa NNW 15 km/h 15 km/h 93 % 20.32 mm 0.0 W/m2 CLR
02:36 -15.6 °C -16.2 °C 34235.8 hPa NNW 17.9 km/h 17.9 km/h 93 % 25.4 mm 0.0 W/m2 RA
02:41 -15.6 °C -16.2 °C 34235.8 hPa NNW 18.2 km/h 18.2 km/h 93 % 20.32 mm 0.0 W/m2 CLR
02:46 -15.6 °C -16.2 °C 34235.8 hPa NNW 20.9 km/h   93 % 25.4 mm 0.0 W/m2 RA
02:51 -15.6 °C -16.2 °C 34235.8 hPa Calm     93 % 20.32 mm 0.0 W/m2 CLR
02:56 -15.6 °C -16.2 °C 34235.8 hPa NNW 20.8 km/h 20.8 km/h 93 % 20.32 mm 0.0 W/m2 RA
03:01 -15.6 °C -16.2 °C 34235.8 hPa NNW 9 km/h 9 km/h 93 % 20.32 mm 0.0 W/m2
03:06 -15.6 °C -16.2 °C 34222.3 hPa NNW 23.8 km/h 23.8 km/h 93 % 25.4 mm 0.0 W/m2 RA
03:11 -15.6 °C -16.2 °C 34222.3 hPa NNW 17.9 km/h 17.9 km/h 93 % 25.4 mm 0.0 W/m2 RA
03:16 -15.6 °C -16.2 °C 34222.3 hPa NNW 23.8 km/h 23.8 km/h 93 % 25.4 mm 0.0 W/m2
03:21 -15.6 °C -16.2 °C 34222.3 hPa NNW 17.9 km/h 17.9 km/h 93 % 25.4 mm 0.0 W/m2 CLR
03:26 -15.6 °C -16.1 °C 34222.3 hPa NW 15 km/h 15 km/h 94 % 33.02 mm 0.0 W/m2 RA
03:31 -15.6 °C -16.1 °C 34222.3 hPa NNW 15 km/h   94 % 33.02 mm 0.0 W/m2 CLR
03:36 -15.6 °C -16.1 °C 34222.3 hPa NNW 23.8 km/h   94 % 25.4 mm 0.0 W/m2 CLR
03:41 -15.6 °C -16.1 °C 34212.1 hPa North 20.9 km/h 20.9 km/h 94 % 33.02 mm 0.0 W/m2 RA
03:46 -15.6 °C -16.1 °C 34222.3 hPa NNW 26.9 km/h 26.9 km/h 94 % 25.4 mm 0.0 W/m2 CLR
03:51 -15.6 °C -16.1 °C 34222.3 hPa Calm     94 % 25.4 mm 0.0 W/m2 CLR
03:56 -15.6 °C -16.1 °C 34222.3 hPa North 29.8 km/h 29.8 km/h 94 % 25.4 mm 0.0 W/m2 RA
04:01 -15.6 °C -16.1 °C 34222.3 hPa NW 23.8 km/h 23.8 km/h 94 % 33.02 mm 0.0 W/m2 RA
04:06 -15.6 °C -16.2 °C 34212.1 hPa NW 26.9 km/h 26.9 km/h 93 % 33.02 mm 0.0 W/m2 RA
04:11 -15.6 °C -16.2 °C 34212.1 hPa NW 35.7 km/h 35.7 km/h 93 % 33.02 mm 0.0 W/m2 RA
04:16 -15.6 °C -16.2 °C 34212.1 hPa NNW 26.9 km/h 26.9 km/h 93 % 38.1 mm 0.0 W/m2 RA
04:21 -15.9 °C -16.4 °C 34212.1 hPa NW 20.9 km/h 20.9 km/h 94 % 38.1 mm 0.0 W/m2 RA
04:26 -15.9 °C -16.5 °C 34212.1 hPa NNW 29.8 km/h 29.8 km/h 93 % 38.1 mm 0.0 W/m2
04:31 -15.9 °C -16.5 °C 34212.1 hPa NW 20.9 km/h 20.9 km/h 93 % 38.1 mm 0.0 W/m2 RA
04:36 -15.9 °C -16.5 °C 34212.1 hPa NW 23.8 km/h 23.8 km/h 93 % 38.1 mm 0.0 W/m2
04:41 -15.9 °C -16.5 °C 34212.1 hPa NW 20.9 km/h 20.9 km/h 93 % 38.1 mm 0.0 W/m2 RA
04:46 -15.9 °C -16.5 °C 34212.1 hPa NW 29.8 km/h 29.8 km/h 93 % 38.1 mm 0.0 W/m2
04:51 -15.9 °C -16.5 °C 34212.1 hPa NNW 29.8 km/h 29.8 km/h 93 % 45.72 mm 0.0 W/m2 RA
04:56 -15.9 °C -16.5 °C 34212.1 hPa NNW 29.8 km/h 29.8 km/h 93 % 38.1 mm 0.0 W/m2
05:01 -15.9 °C -16.5 °C 34212.1 hPa NNW 29.8 km/h 29.8 km/h 93 % 38.1 mm 0.0 W/m2 RA
05:06 -15.9 °C -16.5 °C 34212.1 hPa WNW 17.9 km/h 17.9 km/h 93 % 38.1 mm 0.0 W/m2 CLR
05:11 -16.2 °C -16.8 °C 34212.1 hPa NW 29.8 km/h 29.8 km/h 93 % 38.1 mm 0.0 W/m2 RA
05:16 -16.2 °C -16.8 °C 34212.1 hPa NW 20.9 km/h 20.9 km/h 93 % 38.1 mm 0.0 W/m2 RA
05:21 -16.2 °C -16.8 °C 34212.1 hPa NW 23.8 km/h 23.8 km/h 93 % 33.02 mm 0.0 W/m2 CLR
05:27 -16.2 °C -16.8 °C 34212.1 hPa WNW 29.8 km/h 29.8 km/h 93 % 38.1 mm 0.0 W/m2 RA
05:32 -16.2 °C -16.8 °C 34212.1 hPa NW 29.8 km/h 29.8 km/h 93 % 33.02 mm 0.0 W/m2 CLR
05:37 -16.2 °C -16.8 °C 34212.1 hPa WNW 29.8 km/h 29.8 km/h 93 % 33.02 mm 0.0 W/m2 CLR
05:42 -16.2 °C -16.8 °C 34212.1 hPa NW 26.9 km/h 26.9 km/h 93 % 25.4 mm 0.0 W/m2 CLR
05:47 -16.2 °C -16.8 °C 34212.1 hPa West 20.8 km/h 20.8 km/h 93 % 33.02 mm 0.0 W/m2 RA
05:52 -16.2 °C -16.8 °C 34222.3 hPa NW 9 km/h 9 km/h 93 % 25.4 mm 0.0 W/m2 CLR
05:57 -16.6 °C -17.1 °C 34222.3 hPa WNW 9 km/h   93 % 25.4 mm 0.0 W/m2 CLR
06:02 -16.6 °C -17.1 °C 34222.3 hPa WNW 11.9 km/h 11.9 km/h 93 % 20.32 mm 0.0 W/m2 CLR
06:07 -16.6 °C -17.1 °C 34222.3 hPa Calm     93 % 20.32 mm 0.0 W/m2 CLR
06:12 -16.6 °C -17.1 °C 34222.3 hPa Calm     93 % 12.7 mm 0.0 W/m2 CLR
06:17 -16.6 °C -17.1 °C 34212.1 hPa West 6 km/h 6 km/h 93 % 12.7 mm 0.0 W/m2 CLR
06:22 -16.6 °C -17.1 °C 34212.1 hPa NW 23.8 km/h 23.8 km/h 93 % 12.7 mm 0.0 W/m2 RA
06:27 -16.6 °C -17.1 °C 34222.3 hPa NW 17.9 km/h 17.9 km/h 93 % 12.7 mm 0.0 W/m2 CLR
06:32 -16.6 °C -17.1 °C 34212.1 hPa WNW 23.3 km/h 23.3 km/h 93 % 12.7 mm 0.0 W/m2 CLR
06:37 -16.6 °C -17.1 °C 34222.3 hPa NW 23.8 km/h 23.8 km/h 93 % 12.7 mm 0.0 W/m2 CLR
06:42 -16.6 °C -17.1 °C 34212.1 hPa NW 33.6 km/h 33.6 km/h 93 % 12.7 mm 0.0 W/m2 CLR
06:47 -16.6 °C -17.1 °C 34212.1 hPa NW 35.7 km/h 35.7 km/h 93 % 7.62 mm 0.0 W/m2 CLR
06:52 -16.6 °C -17.1 °C 34222.3 hPa NNW 33.6 km/h 33.6 km/h 93 % 7.62 mm 0.0 W/m2 CLR
06:57 -16.6 °C -17.1 °C 34222.3 hPa NNW 31.1 km/h 31.1 km/h 93 % 7.62 mm 0.0 W/m2 CLR
07:02 -16.6 °C -17.1 °C 34222.3 hPa NW 29.8 km/h 29.8 km/h 93 % 12.7 mm 0.0 W/m2 RA
07:07 -16.6 °C -17.1 °C 34222.3 hPa NNW 35.7 km/h 35.7 km/h 93 % 12.7 mm 0.0 W/m2 CLR
07:12 -16.6 °C -17.1 °C 34222.3 hPa NW 35.7 km/h 35.7 km/h 93 % 12.7 mm 0.0 W/m2 CLR
07:17 -16.6 °C -17.1 °C 34222.3 hPa NW 31.1 km/h 31.1 km/h 93 % 12.7 mm 0.0 W/m2 CLR
07:22 -16.6 °C -17.1 °C 34222.3 hPa NW 38.8 km/h 38.8 km/h 93 % 7.62 mm 0.0 W/m2 CLR
07:27 -16.6 °C -17.1 °C 34222.3 hPa NW 38.8 km/h 38.8 km/h 93 % 7.62 mm 0.0 W/m2 CLR
07:32 -16.6 °C -17.1 °C 34222.3 hPa NW 29.8 km/h 29.8 km/h 93 % 7.62 mm 0.0 W/m2 CLR
07:37 -16.6 °C -17.1 °C 34222.3 hPa WNW 38.8 km/h 38.8 km/h 93 % 7.62 mm 0.0 W/m2 CLR
07:42 -16.6 °C -17.1 °C 34222.3 hPa NW 44.7 km/h 44.7 km/h 93 % 7.62 mm 0.0 W/m2 CLR
07:47 -16.6 °C -17.1 °C 34222.3 hPa NW 44.7 km/h 44.7 km/h 93 % 7.62 mm 0.0 W/m2 CLR
07:52 -16.6 °C -17.1 °C 34222.3 hPa NW 32.8 km/h 32.8 km/h 93 % 7.62 mm 0.0 W/m2 CLR
07:57 -16.6 °C -17.1 °C 34222.3 hPa NW 38.8 km/h 38.8 km/h 93 % 7.62 mm 0.0 W/m2 CLR
08:02 -16.6 °C -17.1 °C 34222.3 hPa NNW 41.7 km/h 41.7 km/h 93 % 0 mm 0.0 W/m2 OVC
08:07 -16.6 °C -17.1 °C 34235.8 hPa NW 38.8 km/h 38.8 km/h 93 % 0 mm 0.0 W/m2 OVC
08:12 -16.6 °C -17.1 °C 34235.8 hPa NW 35.7 km/h 35.7 km/h 93 % 7.62 mm 0.0 W/m2 RA
08:17 -16.6 °C -17.1 °C 34235.8 hPa NW 38.8 km/h 38.8 km/h 93 % 7.62 mm 0.0 W/m2
08:22 -16.8 °C -17.4 °C 34235.8 hPa NW 35.7 km/h 35.7 km/h 93 % 7.62 mm 0.0 W/m2 CLR
08:27 -16.8 °C -17.4 °C 34235.8 hPa NNW 35.7 km/h 35.7 km/h 93 % 7.62 mm 0.0 W/m2 OVC
08:32 -16.8 °C -17.4 °C 34235.8 hPa NNW 32.8 km/h 32.8 km/h 93 % 7.62 mm 5.0 W/m2 OVC
08:37 -16.8 °C -17.4 °C 34246 hPa NNW 41.7 km/h 41.7 km/h 93 % 7.62 mm 7.0 W/m2 BKN
08:42 -16.8 °C -17.4 °C 34246 hPa NNW 35.7 km/h 35.7 km/h 93 % 7.62 mm 7.0 W/m2 BKN
08:47 -16.8 °C -17.4 °C 34246 hPa NW 33.6 km/h 33.6 km/h 93 % 12.7 mm 9.0 W/m2 RA
08:52 -16.8 °C -17.4 °C 34246 hPa NNW 41.7 km/h 41.7 km/h 93 % 12.7 mm 11.0 W/m2 BKN
08:57 -16.8 °C -17.4 °C 34246 hPa North 44.7 km/h 44.7 km/h 93 % 12.7 mm 11.0 W/m2 BKN
09:02 -17.2 °C -17.7 °C 34246 hPa NNW 41.4 km/h 41.4 km/h 93 % 12.7 mm 11.0 W/m2 BKN
09:07 -17.2 °C -17.7 °C 34246 hPa NW 35.7 km/h 35.7 km/h 93 % 12.7 mm 12.0 W/m2 BKN
09:12 -17.2 °C -17.7 °C 34246 hPa NW 38.8 km/h 38.8 km/h 93 % 7.62 mm 9.0 W/m2 BKN
09:17 -17.2 °C -17.7 °C 34256.2 hPa NNW 32.8 km/h 32.8 km/h 93 % 12.7 mm 9.0 W/m2 RA
09:22 -17.2 °C -17.7 °C 34256.2 hPa NNW 41.7 km/h 41.7 km/h 93 % 12.7 mm 9.0 W/m2 BKN
09:27 -17.2 °C -17.7 °C 34256.2 hPa NW 41.7 km/h 41.7 km/h 93 % 12.7 mm 9.0 W/m2 BKN
09:32 -17.2 °C -17.7 °C 34256.2 hPa NW 35.7 km/h 35.7 km/h 93 % 12.7 mm 9.0 W/m2 BKN
09:37 -17.2 °C -17.7 °C 34256.2 hPa NNW 38.8 km/h 38.8 km/h 93 % 12.7 mm 12.0 W/m2 BKN
09:42 -17.2 °C -17.7 °C 34256.2 hPa NW 38.8 km/h 38.8 km/h 93 % 12.7 mm 16.0 W/m2 BKN
09:47 -17.2 °C -17.7 °C 34256.2 hPa NNW 32.8 km/h 32.8 km/h 93 % 7.62 mm 21.0 W/m2 BKN
09:52 -17.2 °C -17.7 °C 34269.7 hPa NW 29.8 km/h 29.8 km/h 93 % 7.62 mm 21.0 W/m2 BKN
09:57 -17.2 °C -17.7 °C 34269.7 hPa NW 49.2 km/h 49.2 km/h 93 % 12.7 mm 23.0 W/m2 RA
10:02 -17.2 °C -17.7 °C 34269.7 hPa NW 26.9 km/h 26.9 km/h 93 % 12.7 mm 28.0 W/m2 BKN
10:07 -17.2 °C -17.7 °C 34279.9 hPa NW 26.9 km/h 26.9 km/h 93 % 12.7 mm 40.0 W/m2 BKN
10:12 -17.2 °C -17.7 °C 34279.9 hPa WNW 29.8 km/h 29.8 km/h 93 % 12.7 mm 46.0 W/m2 BKN
10:17 -17.2 °C -17.7 °C 34279.9 hPa NW 29.8 km/h 29.8 km/h 93 % 7.62 mm 40.0 W/m2 BKN
10:22 -17.2 °C -17.7 °C 34279.9 hPa NW 32.8 km/h 32.8 km/h 93 % 7.62 mm 44.0 W/m2 BKN
10:27 -17.2 °C -17.7 °C 34279.9 hPa NW 29.8 km/h 29.8 km/h 93 % 12.7 mm 58.0 W/m2 RA
10:33 -17.2 °C -17.7 °C 34279.9 hPa NW 36.2 km/h 36.2 km/h 93 % 12.7 mm 72.0 W/m2 SCT
10:38 -17.2 °C -17.7 °C 34279.9 hPa WNW 36.2 km/h 36.2 km/h 93 % 12.7 mm 58.0 W/m2 FEW
10:42 -17.2 °C -17.7 °C 34293.4 hPa NW 38.8 km/h 38.8 km/h 93 % 12.7 mm 49.0 W/m2 SCT
10:48 -17.2 °C -17.7 °C 34293.4 hPa WNW 23.3 km/h 23.3 km/h 93 % 12.7 mm 51.0 W/m2 SCT
10:52 -17.2 °C -17.6 °C 34293.4 hPa NW 26.9 km/h 26.9 km/h 94 % 12.7 mm 49.0 W/m2 SCT
10:58 -17.2 °C -17.6 °C 34303.6 hPa WNW 29.8 km/h 29.8 km/h 94 % 12.7 mm 56.0 W/m2 RA
11:03 -17.2 °C -17.6 °C 34303.6 hPa WNW 23.8 km/h 23.8 km/h 94 % 12.7 mm 63.0 W/m2 SCT
11:08 -17.2 °C -17.6 °C 34303.6 hPa WNW 20.9 km/h 20.9 km/h 94 % 12.7 mm 62.0 W/m2 SCT
11:13 -17.2 °C -17.6 °C 34303.6 hPa WNW 29.8 km/h 29.8 km/h 94 % 12.7 mm 81.0 W/m2 FEW
11:18 -17.2 °C -17.6 °C 34303.6 hPa WNW 26.9 km/h 26.9 km/h 94 % 12.7 mm 91.0 W/m2 RA
11:23 -17.2 °C -17.6 °C 34303.6 hPa WNW 26.9 km/h 26.9 km/h 94 % 12.7 mm 95.0 W/m2 CLR
11:28 -17.2 °C -17.6 °C 34303.6 hPa WNW 38.8 km/h 38.8 km/h 94 % 12.7 mm 77.0 W/m2 CLR
11:33 -17.2 °C -17.6 °C 34313.7 hPa NW 29.8 km/h 29.8 km/h 94 % 12.7 mm 56.0 W/m2 FEW
11:38 -17.2 °C -17.6 °C 34313.7 hPa NW 29.8 km/h 29.8 km/h 94 % 12.7 mm 63.0 W/m2 SCT
11:43 -17.2 °C -17.6 °C 34313.7 hPa WNW 35.7 km/h 35.7 km/h 94 % 12.7 mm 84.0 W/m2 FEW
11:48 -17.2 °C -17.6 °C 34313.7 hPa NW 26.9 km/h 26.9 km/h 94 % 20.32 mm 90.0 W/m2 RA
11:53 -17.2 °C -17.6 °C 34313.7 hPa NW 29.8 km/h 29.8 km/h 94 % 20.32 mm 100.0 W/m2 CLR
11:58 -17.2 °C -17.6 °C 34313.7 hPa NW 25.9 km/h 25.9 km/h 94 % 12.7 mm 114.0 W/m2 CLR
12:03 -17.2 °C -17.6 °C 34313.7 hPa NW 32.8 km/h 32.8 km/h 94 % 12.7 mm 127.0 W/m2 CLR
12:08 -17.2 °C -17.6 °C 34313.7 hPa NW 32.8 km/h 32.8 km/h 94 % 20.32 mm 132.0 W/m2 RA
12:13 -17.2 °C -17.6 °C 34313.7 hPa NW 36.2 km/h 36.2 km/h 94 % 20.32 mm 134.0 W/m2 CLR
12:18 -16.8 °C -17.4 °C 34313.7 hPa NW 41.7 km/h 41.7 km/h 93 % 20.32 mm 153.0 W/m2 RA
12:23 -16.8 °C -17.4 °C 34313.7 hPa WNW 32.8 km/h 32.8 km/h 93 % 20.32 mm 146.0 W/m2 CLR
12:28 -16.8 °C -17.4 °C 34313.7 hPa WNW 29.8 km/h 29.8 km/h 93 % 12.7 mm 162.0 W/m2 CLR
12:33 -16.8 °C -17.4 °C 34313.7 hPa NW 32.8 km/h 32.8 km/h 93 % 20.32 mm 153.0 W/m2 RA
12:38 -16.8 °C -17.4 °C 34303.6 hPa NW 26.9 km/h 26.9 km/h 93 % 20.32 mm 142.0 W/m2 CLR
12:43 -16.8 °C -17.3 °C 34303.6 hPa NW 38.8 km/h 38.8 km/h 94 % 20.32 mm 156.0 W/m2 CLR
12:48 -16.8 °C -17.4 °C 34303.6 hPa NNW 32.8 km/h 32.8 km/h 93 % 20.32 mm 142.0 W/m2 RA
12:53 -16.8 °C -17.4 °C 34303.6 hPa NNW 53.6 km/h 53.6 km/h 93 % 20.32 mm 125.0 W/m2 CLR
12:58 -16.8 °C -17.4 °C 34303.6 hPa NW 47.6 km/h 47.6 km/h 93 % 25.4 mm 109.0 W/m2 RA
13:03 -16.8 °C -17.4 °C 34303.6 hPa NW 28.5 km/h 28.5 km/h 93 % 25.4 mm 104.0 W/m2 CLR
13:08 -16.8 °C -17.4 °C 34293.4 hPa NNW 26.9 km/h 26.9 km/h 93 % 20.32 mm 102.0 W/m2 CLR
13:13 -16.8 °C -17.4 °C 34293.4 hPa NW 36.2 km/h 36.2 km/h 93 % 20.32 mm 88.0 W/m2 CLR
13:18 -16.8 °C -17.4 °C 34303.6 hPa NW 29.8 km/h 29.8 km/h 93 % 12.7 mm 69.0 W/m2 FEW
13:23 -16.8 °C -17.4 °C 34303.6 hPa NW 38.8 km/h 38.8 km/h 93 % 20.32 mm 77.0 W/m2 RA
13:28 -16.8 °C -17.4 °C 34293.4 hPa WNW 29.8 km/h 29.8 km/h 93 % 20.32 mm 67.0 W/m2 FEW
13:33 -16.8 °C -17.4 °C 34293.4 hPa WNW 38.8 km/h 38.8 km/h 93 % 12.7 mm 58.0 W/m2 FEW
13:38 -16.8 °C -17.4 °C 34293.4 hPa NW 32.8 km/h 32.8 km/h 93 % 12.7 mm 72.0 W/m2 SCT
13:43 -16.8 °C -17.4 °C 34293.4 hPa WNW 29.8 km/h 29.8 km/h 93 % 12.7 mm 81.0 W/m2 FEW
13:48 -16.8 °C -17.4 °C 34293.4 hPa NW 29.8 km/h 29.8 km/h 93 % 12.7 mm 97.0 W/m2 RA
13:53 -16.8 °C -17.4 °C 34293.4 hPa West 38.8 km/h 38.8 km/h 93 % 12.7 mm 98.0 W/m2 CLR
13:58 -16.8 °C -17.4 °C 34279.9 hPa WNW 35.7 km/h 35.7 km/h 93 % 12.7 mm 134.0 W/m2 CLR
14:03 -16.8 °C -17.4 °C 34293.4 hPa WNW 29.8 km/h 29.8 km/h 93 % 12.7 mm 142.0 W/m2 CLR
14:08 -16.8 °C -17.4 °C 34293.4 hPa NW 47.6 km/h 47.6 km/h 93 % 12.7 mm 132.0 W/m2 CLR
14:13 -16.8 °C -17.4 °C 34279.9 hPa NW 32.8 km/h 32.8 km/h 93 % 12.7 mm 123.0 W/m2 CLR
14:18 -16.8 °C -17.4 °C 34279.9 hPa WNW 35.7 km/h 35.7 km/h 93 % 12.7 mm 111.0 W/m2 CLR
14:23 -16.8 °C -17.4 °C 34279.9 hPa WNW 32.8 km/h 32.8 km/h 93 % 7.62 mm 102.0 W/m2 CLR
14:28 -16.8 °C -17.4 °C 34279.9 hPa WNW 38.8 km/h 38.8 km/h 93 % 12.7 mm 100.0 W/m2 RA
14:33 -16.8 °C -17.4 °C 34279.9 hPa NW 38.8 km/h 38.8 km/h 93 % 12.7 mm 100.0 W/m2 CLR
14:38 -16.8 °C -17.4 °C 34279.9 hPa NW 44.7 km/h 44.7 km/h 93 % 12.7 mm 100.0 W/m2 CLR
14:43 -16.8 °C -17.4 °C 34279.9 hPa NW 25.9 km/h 25.9 km/h 93 % 12.7 mm 105.0 W/m2 CLR
14:48 -16.8 °C -17.5 °C 34279.9 hPa West 29.8 km/h 29.8 km/h 92 % 7.62 mm 102.0 W/m2 CLR
14:53 -16.8 °C -17.5 °C 34279.9 hPa WNW 29.8 km/h 29.8 km/h 92 % 7.62 mm 100.0 W/m2 CLR
14:58 -16.8 °C -17.5 °C 34279.9 hPa WNW 41.7 km/h 41.7 km/h 92 % 12.7 mm 98.0 W/m2 RA
15:03 -16.8 °C -17.5 °C 34279.9 hPa WNW 35.7 km/h 35.7 km/h 92 % 12.7 mm 97.0 W/m2 CLR
15:08 -16.8 °C -17.5 °C 34279.9 hPa WNW 32.8 km/h 32.8 km/h 92 % 12.7 mm 93.0 W/m2 CLR
15:13 -16.8 °C -17.5 °C 34279.9 hPa WNW 38.8 km/h 38.8 km/h 92 % 12.7 mm 91.0 W/m2 CLR
15:18 -16.8 °C -17.5 °C 34269.7 hPa WNW 38.8 km/h 38.8 km/h 92 % 12.7 mm 90.0 W/m2 CLR
15:23 -16.8 °C -17.5 °C 34279.9 hPa WNW 47.6 km/h 47.6 km/h 92 % 12.7 mm 88.0 W/m2 RA
15:28 -16.8 °C -17.5 °C 34269.7 hPa NW 32.8 km/h 32.8 km/h 92 % 12.7 mm 95.0 W/m2 CLR
15:33 -16.8 °C -17.5 °C 34279.9 hPa NW 33.6 km/h 33.6 km/h 92 % 12.7 mm 102.0 W/m2 CLR
15:38 -16.8 °C -17.5 °C 34279.9 hPa WNW 29.8 km/h 29.8 km/h 92 % 12.7 mm 105.0 W/m2 CLR
15:43 -16.8 °C -17.5 °C 34279.9 hPa WNW 29.8 km/h 29.8 km/h 92 % 12.7 mm 102.0 W/m2 RA
15:48 -16.8 °C -17.5 °C 34279.9 hPa WNW 35.7 km/h 35.7 km/h 92 % 12.7 mm 97.0 W/m2 CLR
15:53 -16.8 °C -17.5 °C 34279.9 hPa West 23.8 km/h 23.8 km/h 92 % 12.7 mm 100.0 W/m2 CLR
15:58 -16.8 °C -17.5 °C 34279.9 hPa WNW 23.8 km/h 23.8 km/h 92 % 12.7 mm 95.0 W/m2 RA
16:03 -16.8 °C -17.5 °C 34279.9 hPa West 26.9 km/h 26.9 km/h 92 % 12.7 mm 79.0 W/m2 CLR
16:08 -16.8 °C -17.5 °C 34279.9 hPa West 29.8 km/h 29.8 km/h 92 % 12.7 mm 67.0 W/m2 FEW
16:13 -16.8 °C -17.5 °C 34279.9 hPa WNW 29.8 km/h 29.8 km/h 92 % 12.7 mm 56.0 W/m2 FEW
16:18 -16.8 °C -17.5 °C 34279.9 hPa West 25.9 km/h 25.9 km/h 92 % 12.7 mm 51.0 W/m2 SCT
16:23 -16.8 °C -17.5 °C 34279.9 hPa WNW 17.9 km/h 17.9 km/h 92 % 12.7 mm 47.0 W/m2 RA
16:28 -16.8 °C -17.5 °C 34279.9 hPa WNW 26.9 km/h 26.9 km/h 92 % 12.7 mm 44.0 W/m2 SCT
16:33 -16.8 °C -17.5 °C 34279.9 hPa WNW 23.8 km/h 23.8 km/h 92 % 12.7 mm 40.0 W/m2 BKN
16:38 -16.8 °C -17.5 °C 34279.9 hPa West 23.8 km/h 23.8 km/h 92 % 12.7 mm 37.0 W/m2 BKN
16:44 -16.8 °C -17.5 °C 34279.9 hPa WNW 29.8 km/h 29.8 km/h 92 % 12.7 mm 35.0 W/m2 BKN
16:49 -16.8 °C -17.5 °C 34279.9 hPa WSW 17.9 km/h 17.9 km/h 92 % 12.7 mm 33.0 W/m2 BKN
16:54 -16.8 °C -17.5 °C 34279.9 hPa West 9 km/h 9 km/h 92 % 12.7 mm 30.0 W/m2 BKN
16:59 -16.8 °C -17.5 °C 34279.9 hPa WSW 9 km/h 9 km/h 92 % 7.62 mm 26.0 W/m2 BKN
17:04 -16.8 °C -17.5 °C 34279.9 hPa Calm     92 % 7.62 mm 25.0 W/m2 BKN
17:09 -16.8 °C -17.5 °C 34279.9 hPa WSW 10.3 km/h 10.3 km/h 92 % 7.62 mm 23.0 W/m2 BKN
17:14 -16.8 °C -17.5 °C 34279.9 hPa Calm     92 % 12.7 mm 21.0 W/m2 RA
17:19 -16.8 °C -17.5 °C 34279.9 hPa Calm     92 % 12.7 mm 19.0 W/m2 BKN
17:24 -16.6 °C -17.2 °C 34279.9 hPa Calm     92 % 7.62 mm 18.0 W/m2 BKN
17:29 -16.6 °C -17.3 °C 34279.9 hPa WSW 9 km/h 9 km/h 91 % 7.62 mm 16.0 W/m2 BKN
17:34 -16.6 °C -17.3 °C 34279.9 hPa Calm     91 % 7.62 mm 16.0 W/m2 BKN
17:39 -16.6 °C -17.3 °C 34279.9 hPa WSW 9 km/h 9 km/h 91 % 7.62 mm 12.0 W/m2 BKN
17:44 -16.6 °C -17.3 °C 34279.9 hPa WSW 11.9 km/h 11.9 km/h 91 % 7.62 mm 11.0 W/m2 BKN
17:49 -16.6 °C -17.3 °C 34279.9 hPa WSW 18.2 km/h 18.2 km/h 91 % 7.62 mm 9.0 W/m2 BKN
17:54 -16.6 °C -17.3 °C 34279.9 hPa WSW 23.8 km/h 23.8 km/h 90 % 7.62 mm 9.0 W/m2 BKN
17:59 -16.6 °C -17.3 °C 34279.9 hPa WSW 20.8 km/h 20.8 km/h 90 % 7.62 mm 7.0 W/m2 BKN
18:04 -16.6 °C -17.3 °C 34279.9 hPa WSW 11.9 km/h 11.9 km/h 90 % 7.62 mm 5.0 W/m2 OVC
18:09 -16.6 °C -17.3 °C 34279.9 hPa West 20.8 km/h 20.8 km/h 90 % 7.62 mm 5.0 W/m2 OVC
18:14 -16.6 °C -17.3 °C 34279.9 hPa WSW 20.9 km/h 20.9 km/h 90 % 0 mm 0.0 W/m2 OVC
18:19 -16.6 °C -17.3 °C 34279.9 hPa West 23.8 km/h 23.8 km/h 90 % 0 mm 0.0 W/m2 OVC
18:24 -16.6 °C -17.3 °C 34279.9 hPa West 18.2 km/h 18.2 km/h 90 % 0 mm 0.0 W/m2 OVC
18:29 -16.6 °C -17.3 °C 34279.9 hPa West 20.8 km/h 20.8 km/h 90 % 0 mm 0.0 W/m2 OVC
18:34 -16.6 °C -17.3 °C 34279.9 hPa West 15.6 km/h 15.6 km/h 90 % 0 mm 0.0 W/m2 CLR
18:39 -16.6 °C -17.4 °C 34279.9 hPa West 26.9 km/h 26.9 km/h 89 % 0 mm 0.0 W/m2 CLR
18:44 -16.6 °C -17.4 °C 34293.4 hPa West 29.8 km/h 29.8 km/h 89 % 0 mm 0.0 W/m2 CLR
18:49 -16.6 °C -17.6 °C 34293.4 hPa West 17.9 km/h 17.9 km/h 88 % 0 mm 0.0 W/m2 CLR
18:54 -16.6 °C -17.6 °C 34293.4 hPa WNW 17.9 km/h 17.9 km/h 88 % 0 mm 0.0 W/m2 CLR
18:59 -16.2 °C -17.2 °C 34293.4 hPa WSW 23.8 km/h 23.8 km/h 88 % 0 mm 0.0 W/m2 CLR
19:04 -16.2 °C -17.3 °C 34293.4 hPa West 17.9 km/h 17.9 km/h 87 % 0 mm 0.0 W/m2 CLR
19:09 -16.2 °C -17.3 °C 34293.4 hPa WNW 23.8 km/h 23.8 km/h 87 % 7.62 mm 0.0 W/m2 RA
19:10 -16.2 °C -17.3 °C 34293.4 hPa West 23.8 km/h 23.8 km/h 87 % 7.62 mm 0.0 W/m2 RA
19:15 -16.2 °C -17.4 °C 34303.6 hPa West 29.8 km/h 29.8 km/h 86 % 7.62 mm 0.0 W/m2
19:20 -16.2 °C -17.4 °C 34303.6 hPa WNW 20.9 km/h 20.9 km/h 86 % 7.62 mm 0.0 W/m2 CLR
19:25 -16.2 °C -17.5 °C 34303.6 hPa West 9 km/h 9 km/h 85 % 7.62 mm 0.0 W/m2 CLR
19:30 -16.2 °C -17.5 °C 34303.6 hPa WNW 11.9 km/h 11.9 km/h 85 % 7.62 mm 0.0 W/m2 CLR
19:35 -16.2 °C -17.5 °C 34303.6 hPa WNW 20.9 km/h 20.9 km/h 85 % 7.62 mm 0.0 W/m2 CLR
19:40 -16.2 °C -17.5 °C 34303.6 hPa WNW 17.9 km/h 17.9 km/h 85 % 7.62 mm 0.0 W/m2 CLR
19:45 -16.2 °C -17.5 °C 34303.6 hPa WNW 10.3 km/h 10.3 km/h 85 % 7.62 mm 0.0 W/m2 CLR
19:50 -16.2 °C -17.5 °C 34313.7 hPa West 18.2 km/h 18.2 km/h 85 % 7.62 mm 0.0 W/m2 CLR
19:55 -16.2 °C -17.5 °C 34313.7 hPa WNW 11.9 km/h 11.9 km/h 85 % 7.62 mm 0.0 W/m2 CLR
20:00 -16.2 °C -17.5 °C 34313.7 hPa West 12.9 km/h 19.6 km/h 85 % 7.62 mm 0.0 W/m2 CLR
20:05 -16.2 °C -17.6 °C 34313.7 hPa NW 23.8 km/h 23.8 km/h 84 % 7.62 mm 0.0 W/m2 CLR
20:10 -16.2 °C -17.6 °C 34313.7 hPa West 17.9 km/h 17.9 km/h 84 % 0 mm 0.0 W/m2 CLR
20:15 -16.2 °C -17.6 °C 34313.7 hPa West 18.2 km/h 18.2 km/h 84 % 0 mm 0.0 W/m2 CLR
20:20 -16.2 °C -17.6 °C 34313.7 hPa West 20.8 km/h 20.8 km/h 84 % 0 mm 0.0 W/m2 CLR
20:25 -16.2 °C -17.7 °C 34327.3 hPa WSW 11.9 km/h 11.9 km/h 83 % 0 mm 0.0 W/m2 CLR
20:30 -16.2 °C -17.7 °C 34327.3 hPa WNW 29.8 km/h 29.8 km/h 83 % 0 mm 0.0 W/m2 CLR
20:35 -16.2 °C -17.8 °C 34327.3 hPa West 29.8 km/h 29.8 km/h 82 % 0 mm 0.0 W/m2 CLR
20:40 -16.2 °C -17.8 °C 34327.3 hPa NW 20.9 km/h 20.9 km/h 82 % 0 mm 0.0 W/m2 CLR
20:45 -16.2 °C -17.8 °C 34327.3 hPa WNW 20.9 km/h 20.9 km/h 82 % 0 mm 0.0 W/m2 CLR
20:50 -16.2 °C -17.9 °C 34327.3 hPa WNW 32.8 km/h 32.8 km/h 81 % 0 mm 0.0 W/m2 CLR
20:55 -16.2 °C -17.9 °C 34327.3 hPa WNW 44.7 km/h 44.7 km/h 80 % 0 mm 0.0 W/m2 CLR
21:00 -16.2 °C -17.9 °C 34327.3 hPa NW 26.9 km/h 26.9 km/h 80 % 0 mm 0.0 W/m2 CLR
21:05 -16.2 °C -17.9 °C 34327.3 hPa NW 38.8 km/h 38.8 km/h 80 % 0 mm 0.0 W/m2 CLR
21:10 -16.2 °C -17.9 °C 34337.4 hPa NW 32.8 km/h 32.8 km/h 80 % 0 mm 0.0 W/m2 CLR
21:15 -16.2 °C -18.1 °C 34337.4 hPa WNW 26.9 km/h 26.9 km/h 79 % 0 mm 0.0 W/m2 CLR
21:20 -16.2 °C -18.1 °C 34337.4 hPa WNW 36.2 km/h 36.2 km/h 79 % 0 mm 0.0 W/m2 CLR
21:25 -16.2 °C -18.1 °C 34337.4 hPa NW 29.8 km/h 29.8 km/h 79 % 0 mm 0.0 W/m2 CLR
21:30 -16.2 °C -18.1 °C 34337.4 hPa WNW 32.8 km/h 32.8 km/h 79 % 0 mm 0.0 W/m2 CLR
21:35 -16.2 °C -18.2 °C 34337.4 hPa WNW 38.8 km/h 38.8 km/h 78 % 0 mm 0.0 W/m2 CLR
21:40 -16.2 °C -18.2 °C 34337.4 hPa NW 29.8 km/h 29.8 km/h 78 % 0 mm 0.0 W/m2 CLR
21:45 -16.2 °C -18.2 °C 34337.4 hPa NW 47.6 km/h 47.6 km/h 78 % 0 mm 0.0 W/m2 CLR
21:50 -16.2 °C -18.2 °C 34337.4 hPa WNW 33.6 km/h 33.6 km/h 78 % 0 mm 0.0 W/m2 CLR
21:55 -16.2 °C -18.1 °C 34337.4 hPa NNW 38.8 km/h 38.8 km/h 79 % 0 mm 0.0 W/m2 CLR
22:00 -16.2 °C -18.1 °C 34337.4 hPa WNW 29.8 km/h 29.8 km/h 79 % 0 mm 0.0 W/m2 CLR
22:05 -16.2 °C -18.1 °C 34337.4 hPa NW 29.8 km/h 29.8 km/h 79 % 0 mm 0.0 W/m2 CLR
22:10 -16.2 °C -18.1 °C 34337.4 hPa NW 38.8 km/h 38.8 km/h 79 % 0 mm 0.0 W/m2 CLR
22:15 -16.2 °C -18.1 °C 34337.4 hPa WNW 29.8 km/h 29.8 km/h 79 % 0 mm 0.0 W/m2 CLR
22:20 -16.2 °C -18.1 °C 34337.4 hPa NW 29.8 km/h 29.8 km/h 79 % 0 mm 0.0 W/m2 CLR
22:25 -16.2 °C -18.1 °C 34337.4 hPa NW 25.9 km/h 25.9 km/h 79 % 0 mm 0.0 W/m2 CLR
22:30 -16.2 °C -18.1 °C 34347.6 hPa NW 35.7 km/h 35.7 km/h 79 % 0 mm 0.0 W/m2 CLR
22:35 -16.2 °C -18.1 °C 34337.4 hPa WNW 26.9 km/h 26.9 km/h 79 % 0 mm 0.0 W/m2 CLR
22:40 -16.2 °C -18.1 °C 34337.4 hPa NW 38.8 km/h 38.8 km/h 79 % 0 mm 0.0 W/m2 CLR
22:45 -16.2 °C -18.1 °C 34347.6 hPa WNW 23.3 km/h 23.3 km/h 79 % 0 mm 0.0 W/m2 CLR
22:50 -16.2 °C -18.1 °C 34347.6 hPa NW 38.8 km/h 38.8 km/h 79 % 0 mm 0.0 W/m2 CLR
22:55 -16.2 °C -18.2 °C 34347.6 hPa NW 38.8 km/h 38.8 km/h 78 % 0 mm 0.0 W/m2 CLR
23:00 -16.6 °C -18.4 °C 34347.6 hPa WNW 23.8 km/h 23.8 km/h 78 % 0 mm 0.0 W/m2 CLR
23:05 -16.6 °C -18.4 °C 34347.6 hPa WNW 31.1 km/h 31.1 km/h 78 % 0 mm 0.0 W/m2 CLR
23:10 -16.6 °C -18.4 °C 34347.6 hPa WNW 29.8 km/h 29.8 km/h 78 % 0 mm 0.0 W/m2 CLR
23:15 -16.6 °C -18.4 °C 34347.6 hPa NW 26.9 km/h 26.9 km/h 78 % 0 mm 0.0 W/m2 CLR
23:20 -16.6 °C -18.4 °C 34347.6 hPa West 29.8 km/h 29.8 km/h 78 % 0 mm 0.0 W/m2 CLR
23:25 -16.6 °C -18.4 °C 34347.6 hPa NW 29.8 km/h 29.8 km/h 78 % 0 mm 0.0 W/m2 CLR
23:30 -16.8 °C -18.8 °C 34347.6 hPa NW 35.7 km/h 35.7 km/h 77 % 0 mm 0.0 W/m2 CLR
23:35 -16.8 °C -18.8 °C 34347.6 hPa West 32.8 km/h 32.8 km/h 77 % 0 mm 0.0 W/m2 CLR
23:40 -16.8 °C -18.9 °C 34347.6 hPa NW 35.7 km/h 35.7 km/h 76 % 0 mm 0.0 W/m2 CLR
23:45 -16.8 °C -18.9 °C 34347.6 hPa WNW 32.8 km/h 32.8 km/h 76 % 0 mm 0.0 W/m2 CLR
23:50 -16.8 °C -18.9 °C 34347.6 hPa WNW 29.8 km/h 29.8 km/h 76 % 0 mm 0.0 W/m2 CLR
23:55 -16.8 °C -18.9 °C 34347.6 hPa West 17.9 km/h 17.9 km/h 76 % 0 mm 0.0 W/m2 CLR
Lo Temps de Massalio
Compliments of Weather Underground - 1.25 mb